Terminal Aerodrome Forecast
Issued by NWS

Home | Current Version | Previous Version | Text Only | Print | Product List | Glossary On
Versions: 1 2 3 4 5 6 7 8 9 10 11 12 13 14 15 16
567
FTUS45 KABQ 201720
TAFROW
TAF
KROW 201720Z 2018/2118 20010KT P6SM SCT070 SCT100
     FM202100 17011KT P6SM VCTS SCT060CB BKN100
     FM210000 35015KT P6SM VCSH SCT060 BKN100
     FM210300 03010KT P6SM -SHRA BKN050 OVC100
     FM210700 VRB05KT P6SM SCT040 SCT070=

USA.gov is the U.S. government's official web portal to all federal, state and local government web resources and services.